Time;durP1;ratioP1;P1;durP2;ratioP2;P2;SDS_P1;SDS_P2;PMS_P1;PMS_P2;Temp;Humidity;BMP_temperature;BMP_pressure;BME280_temperature;BME280_humidity;BME280_pressure;Samples;Min_cycle;Max_cycle;Signal;HPM_P1;HPM_P2
2021/05/31 00:02:49;;;;;;;4.32;2.97;;;;;;;15.82;47.84;100863.56;10258422;28;20053;-62
2021/05/31 00:07:53;;;;;;;3.28;2.60;;;;;;;15.84;47.94;100858.03;10256622;28;20054;-62
2021/05/31 00:12:54;;;;;;;5.83;2.80;;;;;;;15.71;47.88;100847.56;10242599;28;20075;-62
2021/05/31 00:17:57;;;;;;;4.07;2.55;;;;;;;15.75;48.33;100857.03;10258111;28;20426;-61
2021/05/31 00:22:58;;;;;;;2.83;2.53;;;;;;;15.69;48.56;100841.50;10253517;28;20070;-62
2021/05/31 00:28:00;;;;;;;3.17;2.97;;;;;;;15.59;48.65;100844.16;10252012;28;20047;-61
2021/05/31 00:33:01;;;;;;;2.78;2.45;;;;;;;15.64;49.35;100838.38;10253548;28;20114;-62
2021/05/31 00:38:03;;;;;;;3.97;2.90;;;;;;;15.68;49.84;100846.00;10254248;28;20336;-62
2021/05/31 00:43:04;;;;;;;4.07;2.85;;;;;;;15.63;50.56;100829.50;10236545;28;20077;-61
2021/05/31 00:48:06;;;;;;;3.67;3.15;;;;;;;15.51;49.68;100834.16;10255345;28;20046;-61
2021/05/31 00:53:08;;;;;;;4.18;3.42;;;;;;;15.42;49.33;100837.69;10249473;28;20069;-61
2021/05/31 00:58:10;;;;;;;3.28;2.92;;;;;;;15.34;49.73;100834.84;10263692;28;20575;-68
2021/05/31 01:03:12;;;;;;;2.78;2.55;;;;;;;15.24;49.79;100831.31;10242578;28;20082;-61
2021/05/31 01:08:18;;;;;;;4.80;2.75;;;;;;;15.18;49.91;100828.22;10245812;28;20055;-60
2021/05/31 01:13:47;;;;;;;5.25;2.90;;;;;;;15.19;50.04;100832.59;10262266;28;20063;-68
2021/05/31 01:18:50;;;;;;;4.97;3.30;;;;;;;15.11;50.79;100835.09;10258243;28;20134;-61
2021/05/31 01:24:06;;;;;;;4.75;3.03;;;;;;;15.03;51.00;100834.97;10260724;28;20125;-63
2021/05/31 01:29:10;;;;;;;4.00;3.33;;;;;;;15.03;51.38;100838.47;10263105;28;20070;-61
2021/05/31 01:34:17;;;;;;;4.25;3.85;;;;;;;14.88;51.75;100828.28;10259434;28;20137;-62
2021/05/31 01:39:23;;;;;;;2.90;2.70;;;;;;;14.88;51.63;100836.31;10261878;28;20066;-62
2021/05/31 01:44:26;;;;;;;3.65;3.22;;;;;;;14.79;51.90;100836.16;10238029;28;20491;-62
2021/05/31 01:49:28;;;;;;;4.07;3.03;;;;;;;14.91;51.68;100844.13;10252807;28;20117;-62
2021/05/31 01:54:30;;;;;;;3.85;3.22;;;;;;;14.87;51.72;100831.97;10238186;28;20054;-62
2021/05/31 01:59:33;;;;;;;4.05;3.55;;;;;;;14.71;51.80;100837.84;10242191;28;20408;-63
2021/05/31 02:04:34;;;;;;;4.35;3.33;;;;;;;14.59;52.50;100839.72;10239968;28;20133;-62
2021/05/31 02:09:36;;;;;;;4.40;2.90;;;;;;;14.50;52.79;100828.84;10261663;28;20054;-62
2021/05/31 02:14:48;;;;;;;3.92;3.13;;;;;;;14.48;53.06;100833.47;10260903;28;20066;-61
2021/05/31 02:19:55;;;;;;;4.93;3.17;;;;;;;14.41;53.49;100820.78;10258538;28;20118;-61
2021/05/31 02:24:57;;;;;;;3.60;2.97;;;;;;;14.33;53.57;100824.13;10255385;28;20172;-61
2021/05/31 02:29:59;;;;;;;4.15;3.17;;;;;;;14.26;54.03;100822.97;10241047;28;20074;-61
2021/05/31 02:35:01;;;;;;;4.05;3.53;;;;;;;14.13;54.11;100823.19;10254903;28;20050;-62
2021/05/31 02:40:05;;;;;;;3.50;3.17;;;;;;;14.05;54.34;100821.19;10258086;28;20136;-62
2021/05/31 02:45:08;;;;;;;4.90;3.00;;;;;;;13.95;54.31;100820.28;10243982;28;20102;-62
2021/05/31 02:50:10;;;;;;;3.47;2.88;;;;;;;13.90;54.58;100825.16;10261178;28;20286;-61
2021/05/31 02:55:18;;;;;;;3.70;3.40;;;;;;;13.87;54.43;100828.09;10256314;28;20145;-64
2021/05/31 03:00:23;;;;;;;3.75;3.00;;;;;;;13.87;54.34;100828.09;10239732;28;20074;-62
2021/05/31 03:05:29;;;;;;;7.10;3.00;;;;;;;13.82;54.43;100827.66;10255317;28;20074;-62
2021/05/31 03:10:31;;;;;;;3.88;2.83;;;;;;;13.82;54.44;100825.81;10252412;28;20067;-62
2021/05/31 03:15:32;;;;;;;5.25;3.05;;;;;;;13.84;54.06;100828.34;10247766;28;20150;-62
2021/05/31 03:20:34;;;;;;;3.58;2.97;;;;;;;13.78;53.92;100825.22;10243216;28;20083;-61
2021/05/31 03:25:35;;;;;;;3.97;3.58;;;;;;;13.72;53.97;100820.41;10258590;28;20700;-62
2021/05/31 03:30:37;;;;;;;4.43;3.10;;;;;;;13.75;54.10;100828.19;10258636;28;20130;-61
2021/05/31 03:35:39;;;;;;;3.90;3.05;;;;;;;13.75;53.91;100830.84;10248408;28;20078;-62
2021/05/31 03:40:40;;;;;;;5.43;3.17;;;;;;;13.73;53.85;100835.47;10258329;28;20127;-62
2021/05/31 03:45:41;;;;;;;4.18;2.83;;;;;;;13.74;54.10;100836.34;10254785;28;20077;-61
2021/05/31 03:50:43;;;;;;;4.90;3.65;;;;;;;13.71;54.33;100837.44;10259749;28;20101;-63
2021/05/31 03:55:44;;;;;;;3.25;2.92;;;;;;;13.71;54.52;100828.56;10252338;28;20050;-61
2021/05/31 04:00:46;;;;;;;3.50;3.20;;;;;;;13.70;54.88;100832.22;10255119;28;20070;-61
2021/05/31 04:16:27;;;;;;;3.35;3.05;;;;;;;13.82;55.92;100838.34;10258396;28;20051;-62
2021/05/31 04:21:28;;;;;;;4.03;3.63;;;;;;;13.85;56.56;100846.13;10258872;28;20126;-61
2021/05/31 04:26:33;;;;;;;6.05;3.63;;;;;;;13.84;56.25;100834.56;10256677;28;20082;-61
2021/05/31 04:31:35;;;;;;;5.43;3.55;;;;;;;13.82;56.87;100841.88;10259650;28;20102;-63
2021/05/31 04:36:36;;;;;;;4.50;4.03;;;;;;;13.85;57.14;100824.72;10265392;28;20051;-63
2021/05/31 04:41:39;;;;;;;5.65;3.78;;;;;;;13.84;57.67;100825.69;10261015;28;20069;-61
2021/05/31 04:46:40;;;;;;;6.32;4.88;;;;;;;13.93;57.46;100827.56;10261008;28;20097;-63
2021/05/31 04:51:43;;;;;;;4.45;3.97;;;;;;;13.98;57.24;100828.03;10268595;28;20051;-62
2021/05/31 04:56:45;;;;;;;4.80;4.20;;;;;;;14.07;57.18;100832.59;10265653;28;20109;-62
2021/05/31 05:01:47;;;;;;;4.38;3.80;;;;;;;14.17;57.10;100834.47;10258362;28;20142;-67
2021/05/31 05:06:48;;;;;;;5.68;3.70;;;;;;;14.22;57.23;100842.97;10239410;28;20055;-61
2021/05/31 05:11:49;;;;;;;5.47;3.92;;;;;;;14.27;57.03;100844.25;10241212;28;20135;-62
2021/05/31 05:16:52;;;;;;;4.88;4.00;;;;;;;14.37;56.44;100835.44;10251067;28;20174;-62
2021/05/31 05:21:54;;;;;;;5.10;4.03;;;;;;;14.44;57.14;100842.78;10238249;28;20166;-61
2021/05/31 05:26:55;;;;;;;4.68;4.03;;;;;;;14.54;56.99;100832.09;10245303;28;20138;-61
2021/05/31 05:31:59;;;;;;;4.90;3.95;;;;;;;14.67;56.16;100837.28;10254058;28;20070;-62
2021/05/31 05:37:07;;;;;;;5.60;3.53;;;;;;;14.72;56.57;100842.22;10250219;28;20575;-64
2021/05/31 05:52:23;;;;;;;3.15;2.85;;;;;;;15.07;55.16;100836.34;10253162;28;20042;-62
2021/05/31 05:57:24;;;;;;;6.18;3.30;;;;;;;15.20;52.88;100833.44;10247721;28;20066;-65
2021/05/31 06:02:26;;;;;;;3.45;2.83;;;;;;;15.28;52.32;100840.78;10247212;28;20047;-63
2021/05/31 06:07:27;;;;;;;4.50;2.55;;;;;;;15.40;51.07;100839.63;10254991;28;20117;-67
2021/05/31 06:12:29;;;;;;;2.50;2.30;;;;;;;15.64;52.06;100841.06;10261008;28;20076;-69
2021/05/31 06:17:31;;;;;;;4.53;2.67;;;;;;;15.93;50.36;100845.56;10259478;28;20193;-68
2021/05/31 06:22:38;;;;;;;4.90;2.90;;;;;;;16.08;50.06;100830.72;10252068;28;20065;-62
2021/05/31 06:27:40;;;;;;;3.60;3.00;;;;;;;16.22;48.87;100835.63;10234926;28;20055;-63
2021/05/31 06:32:41;;;;;;;2.85;2.38;;;;;;;16.22;48.93;100824.03;10229245;28;20058;-65
2021/05/31 06:37:43;;;;;;;3.53;2.40;;;;;;;16.30;47.95;100831.34;10242879;28;20088;-64
2021/05/31 06:42:47;;;;;;;5.43;2.63;;;;;;;16.50;48.17;100829.44;10226092;28;20416;-64
2021/05/31 06:47:50;;;;;;;2.40;2.20;;;;;;;16.66;46.40;100820.72;10238610;28;20542;-64
2021/05/31 06:52:52;;;;;;;5.07;3.42;;;;;;;16.76;46.36;100826.91;10243903;28;20165;-64
2021/05/31 06:57:54;;;;;;;2.85;1.60;;;;;;;16.99;45.33;100831.91;10246018;28;20058;-65
2021/05/31 07:02:56;;;;;;;4.18;2.25;;;;;;;17.06;45.53;100816.84;10244285;28;20158;-66
2021/05/31 07:07:59;;;;;;;3.40;2.45;;;;;;;17.26;45.34;100813.03;10245163;28;20054;-65
2021/05/31 07:13:02;;;;;;;3.10;2.40;;;;;;;17.59;44.90;100815.97;10243278;28;20058;-65
2021/05/31 07:18:03;;;;;;;2.78;2.47;;;;;;;17.69;44.40;100817.75;10234561;28;20134;-63
2021/05/31 07:23:08;;;;;;;4.85;2.53;;;;;;;17.75;43.77;100817.13;10240971;28;20051;-64
2021/05/31 07:28:10;;;;;;;3.13;2.13;;;;;;;17.87;43.18;100820.44;10233221;28;20046;-67
2021/05/31 07:33:13;;;;;;;5.60;2.00;;;;;;;18.09;41.57;100814.53;10246275;28;20062;-65
2021/05/31 07:38:15;;;;;;;3.22;2.33;;;;;;;18.37;41.20;100812.50;10248892;28;20081;-64
2021/05/31 07:43:17;;;;;;;4.05;2.83;;;;;;;18.56;41.38;100810.56;10260332;28;20054;-66
2021/05/31 07:48:19;;;;;;;2.85;2.33;;;;;;;18.71;41.28;100806.22;10254224;28;20057;-64
2021/05/31 07:53:21;;;;;;;3.35;2.03;;;;;;;18.78;40.98;100803.75;10250429;28;20115;-65
2021/05/31 07:58:22;;;;;;;2.17;1.90;;;;;;;19.03;41.50;100795.72;10258899;28;20054;-65
2021/05/31 08:03:24;;;;;;;5.35;2.15;;;;;;;19.19;39.69;100800.31;10256666;28;20176;-65
2021/05/31 08:08:27;;;;;;;1.48;1.27;;;;;;;19.25;39.29;100794.25;10256481;28;20075;-65
2021/05/31 08:13:29;;;;;;;3.17;1.73;;;;;;;19.46;37.35;100788.34;10252244;28;20082;-66
2021/05/31 08:18:31;;;;;;;3.38;1.98;;;;;;;19.68;37.26;100794.94;10249635;28;20449;-67
2021/05/31 08:23:32;;;;;;;3.30;1.58;;;;;;;19.83;36.71;100788.84;10252389;28;20141;-64
2021/05/31 08:28:36;;;;;;;2.75;1.48;;;;;;;19.98;35.25;100783.59;10252942;28;20137;-66
2021/05/31 08:33:38;;;;;;;4.45;1.77;;;;;;;20.19;35.19;100788.44;10235778;28;20047;-64
2021/05/31 08:38:40;;;;;;;4.97;1.42;;;;;;;20.38;35.27;100782.63;10244153;28;20549;-64
2021/05/31 08:43:41;;;;;;;2.97;1.45;;;;;;;20.71;34.98;100779.81;10240485;28;20078;-65
2021/05/31 08:48:43;;;;;;;2.10;1.55;;;;;;;20.70;33.45;100755.63;10240293;28;20133;-66
2021/05/31 08:53:45;;;;;;;3.95;1.08;;;;;;;21.09;33.18;100765.53;10239184;28;20189;-65
2021/05/31 08:58:49;;;;;;;1.95;1.30;;;;;;;21.38;32.06;100764.81;10228327;28;20054;-63
2021/05/31 09:03:54;;;;;;;2.35;1.13;;;;;;;21.57;32.51;100763.47;10242673;28;20063;-65
2021/05/31 09:08:58;;;;;;;4.85;2.03;;;;;;;21.59;31.82;100760.59;10242497;28;22046;-68
2021/05/31 09:14:00;;;;;;;2.65;1.90;;;;;;;21.65;32.46;100755.28;10240336;28;20863;-65
2021/05/31 09:19:06;;;;;;;2.28;2.08;;;;;;;21.61;32.55;100748.53;10249705;28;20496;-65
2021/05/31 09:24:14;;;;;;;2.78;1.60;;;;;;;21.80;32.12;100739.06;10250535;28;20055;-65
2021/05/31 09:29:17;;;;;;;3.97;1.80;;;;;;;21.94;32.64;100740.09;10248900;28;20122;-65
2021/05/31 09:34:18;;;;;;;3.00;1.90;;;;;;;22.15;32.46;100733.91;10241319;28;20574;-64
2021/05/31 09:39:27;;;;;;;3.88;1.95;;;;;;;22.64;31.64;100737.91;10265749;28;20156;-64
2021/05/31 09:44:29;;;;;;;1.80;1.50;;;;;;;22.82;31.58;100733.88;10259539;28;20057;-65
2021/05/31 09:49:30;;;;;;;3.65;1.30;;;;;;;22.95;29.89;100724.03;10257396;28;20162;-65
2021/05/31 09:54:36;;;;;;;4.60;1.50;;;;;;;22.85;31.73;100736.22;10261964;28;20436;-64
2021/05/31 09:59:38;;;;;;;3.20;1.67;;;;;;;23.02;31.42;100729.50;10262415;28;20055;-64
2021/05/31 10:05:06;;;;;;;3.30;1.60;;;;;;;23.41;29.13;100724.66;10258424;28;20051;-66
2021/05/31 10:10:08;;;;;;;2.60;1.42;;;;;;;23.63;29.73;100726.31;10259083;28;20063;-67
2021/05/31 10:15:26;;;;;;;3.58;3.05;;;;;;;23.63;30.20;100715.44;10256938;28;20055;-66
2021/05/31 10:20:30;;;;;;;3.08;1.48;;;;;;;24.03;30.09;100719.47;10241116;28;20086;-63
2021/05/31 10:25:40;;;;;;;1.48;1.08;;;;;;;24.47;29.38;100694.56;10258989;28;20046;-65
2021/05/31 10:30:44;;;;;;;2.28;1.38;;;;;;;24.88;30.26;100690.91;10259919;28;20046;-65
2021/05/31 10:35:50;;;;;;;2.72;1.83;;;;;;;24.88;27.82;100690.06;10253775;28;20050;-66
2021/05/31 10:40:53;;;;;;;2.90;1.88;;;;;;;24.30;28.64;100683.19;10243853;28;20490;-66
2021/05/31 10:46:03;;;;;;;3.38;1.30;;;;;;;24.28;29.65;100674.38;10243784;28;20062;-65
2021/05/31 10:51:14;;;;;;;2.60;1.92;;;;;;;25.14;29.20;100677.50;10245765;28;20059;-68
2021/05/31 10:56:29;;;;;;;3.15;1.50;;;;;;;25.58;28.24;100673.28;10245035;28;20125;-68
2021/05/31 11:01:33;;;;;;;2.70;1.40;;;;;;;25.55;27.08;100679.16;10243371;28;20050;-66
2021/05/31 11:06:37;;;;;;;2.50;1.52;;;;;;;25.79;26.85;100665.91;10243613;28;20046;-66
2021/05/31 11:11:48;;;;;;;4.53;1.73;;;;;;;25.44;26.59;100669.75;10243016;28;20264;-65
2021/05/31 11:16:58;;;;;;;1.70;1.58;;;;;;;25.46;27.73;100669.56;10244415;28;20050;-65
2021/05/31 11:22:11;;;;;;;3.20;1.50;;;;;;;25.51;27.18;100653.41;10241882;28;20046;-65
2021/05/31 11:27:13;;;;;;;2.08;1.42;;;;;;;25.51;28.09;100645.25;10243858;28;20141;-67
2021/05/31 11:32:19;;;;;;;3.42;1.65;;;;;;;25.62;26.67;100649.19;10242244;28;20082;-67
2021/05/31 11:37:22;;;;;;;3.17;1.90;;;;;;;26.07;27.30;100636.47;10242383;28;20129;-65
2021/05/31 11:42:25;;;;;;;2.20;1.42;;;;;;;25.93;24.77;100638.41;10242040;28;20057;-68
2021/05/31 11:47:29;;;;;;;2.03;1.42;;;;;;;25.84;25.04;100634.25;10241518;28;20116;-66
2021/05/31 11:52:30;;;;;;;4.10;1.75;;;;;;;25.69;25.21;100639.94;10275779;23;20151;-65
2021/05/31 11:57:32;;;;;;;2.28;1.48;;;;;;;25.77;24.93;100627.97;10263211;28;20141;-65
2021/05/31 12:02:38;;;;;;;1.95;1.60;;;;;;;25.85;24.67;100630.47;10242559;28;20042;-64
2021/05/31 12:07:43;;;;;;;1.30;1.15;;;;;;;25.90;24.87;100621.63;10230382;28;20070;-67
2021/05/31 12:12:48;;;;;;;2.00;1.42;;;;;;;26.03;25.19;100620.75;10242157;28;20067;-63
2021/05/31 12:17:52;;;;;;;6.30;1.40;;;;;;;26.13;25.22;100614.84;10225983;28;20529;-64
2021/05/31 12:22:55;;;;;;;2.85;1.30;;;;;;;26.29;24.12;100612.44;10230234;28;20065;-63
2021/05/31 12:28:03;;;;;;;2.42;1.25;;;;;;;26.30;25.27;100605.09;10233062;28;20141;-62
2021/05/31 12:33:09;;;;;;;1.60;1.30;;;;;;;26.09;23.90;100601.66;10233123;28;20197;-63
2021/05/31 12:38:11;;;;;;;2.25;1.20;;;;;;;25.69;25.06;100599.06;10243302;28;20202;-62
2021/05/31 12:43:13;;;;;;;1.88;1.25;;;;;;;25.76;24.96;100599.03;10241703;28;20129;-63
2021/05/31 12:48:17;;;;;;;2.17;1.23;;;;;;;25.92;24.93;100600.44;10243279;28;20248;-65
2021/05/31 12:53:19;;;;;;;2.72;1.58;;;;;;;25.62;24.94;100581.06;10238760;28;20149;-65
2021/05/31 12:58:26;;;;;;;3.25;1.40;;;;;;;25.64;25.75;100571.63;10249670;28;20133;-63
2021/05/31 13:03:32;;;;;;;1.95;1.20;;;;;;;25.84;25.91;100567.97;10250749;28;20464;-61
2021/05/31 13:08:39;;;;;;;3.13;1.63;;;;;;;25.87;25.69;100573.00;10248853;28;20059;-62
2021/05/31 13:13:40;;;;;;;2.28;1.35;;;;;;;25.58;25.07;100569.72;10249489;28;20137;-61
2021/05/31 13:18:43;;;;;;;3.15;1.40;;;;;;;25.44;26.07;100568.13;10249300;28;20070;-62
2021/05/31 13:23:48;;;;;;;2.83;1.50;;;;;;;25.43;25.47;100552.81;10250595;28;20240;-63
2021/05/31 13:28:55;;;;;;;1.75;1.17;;;;;;;25.43;26.21;100555.53;10249401;28;20141;-61
2021/05/31 13:33:56;;;;;;;2.60;1.15;;;;;;;25.34;26.82;100546.75;10247924;28;20158;-63
2021/05/31 13:39:06;;;;;;;3.22;1.30;;;;;;;25.13;26.06;100539.66;10248828;28;20165;-62
2021/05/31 13:44:28;;;;;;;1.83;1.33;;;;;;;25.02;26.26;100539.25;10248080;28;20046;-61
2021/05/31 13:49:30;;;;;;;2.20;1.00;;;;;;;25.02;25.86;100543.88;10248242;28;20193;-62
2021/05/31 13:54:33;;;;;;;1.88;1.00;;;;;;;24.86;25.68;100534.25;10248287;28;20145;-62
2021/05/31 13:59:34;;;;;;;;;;;;;;;24.73;26.37;100523.38;10248800;28;20058;-62
2021/05/31 14:04:37;;;;;;;2.90;1.60;;;;;;;24.69;26.53;100512.91;10249676;28;19930;-64
2021/05/31 14:09:39;;;;;;;3.83;1.38;;;;;;;24.79;27.39;100514.38;10250091;28;20129;-64
2021/05/31 14:14:41;;;;;;;3.05;1.27;;;;;;;24.63;27.10;100507.47;10250619;28;20195;-63
2021/05/31 14:19:43;;;;;;;2.23;1.50;;;;;;;24.45;27.23;100499.91;10247762;28;20122;-62
2021/05/31 14:24:45;;;;;;;1.63;1.02;;;;;;;24.50;27.10;100498.25;10248892;28;20571;-64
2021/05/31 14:29:46;;;;;;;3.22;1.50;;;;;;;24.48;27.01;100499.50;10248141;28;20698;-61
2021/05/31 14:34:48;;;;;;;2.50;1.15;;;;;;;24.45;26.79;100497.19;10247804;28;20142;-63
2021/05/31 14:39:49;;;;;;;1.63;1.10;;;;;;;24.34;26.98;100496.75;10245095;28;20093;-64
2021/05/31 14:44:52;;;;;;;2.20;1.00;;;;;;;24.28;26.73;100492.16;10246725;28;20121;-62
2021/05/31 14:49:54;;;;;;;1.30;1.13;;;;;;;24.23;26.88;100480.22;10250128;28;20065;-64
2021/05/31 14:54:55;;;;;;;2.22;1.13;;;;;;;24.24;26.79;100482.72;10261591;28;20169;-63
2021/05/31 14:59:57;;;;;;;1.60;1.27;;;;;;;24.20;27.44;100473.34;10255243;28;20102;-62
2021/05/31 15:04:59;;;;;;;2.08;1.50;;;;;;;24.16;27.68;100472.06;10256009;28;20124;-63
2021/05/31 15:10:01;;;;;;;3.47;1.77;;;;;;;24.08;27.26;100470.41;10260403;28;20058;-64
2021/05/31 15:15:04;;;;;;;1.92;1.30;;;;;;;24.01;26.83;100464.09;10239843;28;20514;-61
2021/05/31 15:20:07;;;;;;;2.05;0.90;;;;;;;23.94;26.77;100461.34;10241327;28;20129;-63
2021/05/31 15:25:09;;;;;;;2.05;1.17;;;;;;;23.94;27.15;100461.34;10235505;28;20144;-64
2021/05/31 15:30:11;;;;;;;1.80;1.15;;;;;;;23.88;27.05;100455.91;10258436;28;20050;-64
2021/05/31 15:35:13;;;;;;;3.03;1.35;;;;;;;23.84;26.98;100455.47;10264645;28;20196;-62
2021/05/31 15:40:16;;;;;;;3.13;1.27;;;;;;;23.61;26.43;100453.09;10248345;28;20098;-63
2021/05/31 15:45:20;;;;;;;1.30;1.10;;;;;;;23.61;27.16;100450.38;10233283;28;20043;-62
2021/05/31 15:50:22;;;;;;;1.88;1.20;;;;;;;23.56;26.75;100436.59;10264497;28;20574;-63
2021/05/31 15:55:23;;;;;;;2.22;1.58;;;;;;;23.58;27.39;100429.88;10261850;28;20054;-64
2021/05/31 16:00:25;;;;;;;1.48;1.10;;;;;;;23.62;26.94;100433.88;10253778;28;20066;-62
2021/05/31 16:05:26;;;;;;;2.83;1.10;;;;;;;23.64;27.49;100426.38;10232698;28;20069;-61
2021/05/31 16:10:28;;;;;;;1.05;0.90;;;;;;;23.70;27.13;100421.16;10255805;28;20552;-62
2021/05/31 16:15:29;;;;;;;2.08;1.55;;;;;;;23.70;26.77;100423.88;10239484;28;20125;-61
2021/05/31 16:20:31;;;;;;;2.60;1.52;;;;;;;23.66;26.43;100426.19;10253853;28;20131;-62
2021/05/31 16:25:32;;;;;;;2.67;1.55;;;;;;;23.66;26.67;100428.88;10237431;28;20200;-62
2021/05/31 16:30:33;;;;;;;1.65;1.27;;;;;;;23.65;27.08;100425.31;10247215;28;20246;-63
2021/05/31 16:35:35;;;;;;;2.03;1.17;;;;;;;23.64;27.00;100418.22;10228509;28;22079;-62
2021/05/31 16:40:38;;;;;;;4.13;1.90;;;;;;;23.58;27.79;100415.47;10247991;28;20061;-62
2021/05/31 16:45:40;;;;;;;2.40;1.60;;;;;;;23.59;27.94;100420.72;10249136;28;20117;-62
2021/05/31 16:50:41;;;;;;;2.67;1.58;;;;;;;23.58;28.09;100412.75;10245090;28;20075;-63
2021/05/31 16:55:43;;;;;;;1.75;1.20;;;;;;;23.49;27.88;100409.38;10239712;28;20548;-62
2021/05/31 17:00:45;;;;;;;3.75;1.25;;;;;;;23.44;27.96;100401.84;10239528;28;20775;-62
2021/05/31 17:05:47;;;;;;;5.22;1.58;;;;;;;23.44;28.04;100404.56;10237816;28;20063;-62
2021/05/31 17:21:20;;;;;;;1.65;1.10;;;;;;;23.28;27.53;100404.94;10236487;28;20121;-64
2021/05/31 17:26:22;;;;;;;4.35;2.42;;;;;;;23.23;28.74;100397.41;10224201;28;20130;-66
2021/05/31 17:32:28;;;;;;;7.43;2.95;;;;;;;23.22;29.03;100393.00;10241012;28;20113;-65
2021/05/31 17:36:48;;;;;;;4.00;1.50;;;;;;;23.18;28.57;100396.34;10239619;28;20183;-66
2021/05/31 17:41:50;;;;;;;1.73;1.35;;;;;;;23.12;28.60;100398.00;10245498;28;20122;-71
2021/05/31 17:46:51;;;;;;;2.38;1.70;;;;;;;23.03;28.61;100404.59;10230439;28;20136;-67
2021/05/31 17:51:55;;;;;;;2.20;1.13;;;;;;;22.89;27.42;100400.97;10245480;28;20137;-65
2021/05/31 17:56:57;;;;;;;2.22;1.45;;;;;;;22.72;28.01;100398.59;10245196;28;20232;-65
2021/05/31 18:01:59;;;;;;;1.38;1.10;;;;;;;22.58;28.52;100388.72;10240280;28;20054;-65
2021/05/31 18:07:01;;;;;;;2.87;1.00;;;;;;;22.42;27.78;100403.41;10241869;28;20082;-65
2021/05/31 18:12:05;;;;;;;6.10;2.30;;;;;;;22.32;28.87;100402.94;10229597;28;20206;-64
2021/05/31 18:17:07;;;;;;;2.38;1.40;;;;;;;22.21;28.58;100412.41;10228554;28;20046;-63
2021/05/31 18:22:23;;;;;;;2.20;0.98;;;;;;;22.07;28.67;100398.75;10198775;28;20770;-62
2021/05/31 18:27:25;;;;;;;1.77;1.10;;;;;;;22.01;29.07;100396.00;10218160;28;20053;-61
2021/05/31 18:32:26;;;;;;;2.15;1.00;;;;;;;21.91;28.80;100398.19;10243899;28;20142;-61
2021/05/31 18:37:28;;;;;;;2.65;1.50;;;;;;;21.81;29.40;100401.22;10239759;28;20082;-62
2021/05/31 18:42:30;;;;;;;1.63;1.13;;;;;;;21.64;29.33;100392.50;10242864;28;20182;-62
2021/05/31 18:47:31;;;;;;;1.17;0.93;;;;;;;21.59;29.62;100408.47;10239546;28;20642;-61
2021/05/31 18:52:33;;;;;;;0.90;0.80;;;;;;;21.52;29.80;100413.84;10235139;28;20059;-62
2021/05/31 18:57:35;;;;;;;2.17;1.10;;;;;;;21.38;29.96;100407.41;10245046;28;20137;-61
2021/05/31 19:02:37;;;;;;;2.13;1.50;;;;;;;21.32;29.68;100414.41;10243558;28;20053;-62
2021/05/31 19:07:39;;;;;;;1.20;1.10;;;;;;;21.22;29.94;100419.28;10244097;28;20078;-61
2021/05/31 19:12:43;;;;;;;1.30;0.75;;;;;;;21.15;29.98;100421.94;10236617;28;20098;-62
2021/05/31 19:17:45;;;;;;;3.10;1.20;;;;;;;21.00;29.72;100424.66;10238282;28;20193;-62
2021/05/31 19:22:47;;;;;;;2.35;1.05;;;;;;;20.93;30.00;100434.53;10251263;28;20055;-62
2021/05/31 19:27:48;;;;;;;1.88;1.23;;;;;;;20.86;30.27;100430.06;10252643;28;20138;-62
2021/05/31 19:32:51;;;;;;;1.73;1.30;;;;;;;20.73;30.11;100431.56;10249755;28;20563;-63
2021/05/31 19:37:53;;;;;;;1.45;1.05;;;;;;;20.66;30.39;100439.56;10253119;28;20193;-61
2021/05/31 19:42:57;;;;;;;3.17;1.15;;;;;;;20.58;30.46;100455.00;10241648;28;20113;-62
2021/05/31 19:47:58;;;;;;;3.40;1.45;;;;;;;20.51;30.76;100445.94;10251372;28;20535;-61
2021/05/31 19:53:06;;;;;;;2.10;1.10;;;;;;;20.44;31.38;100454.78;10240429;28;20079;-62
2021/05/31 20:03:30;;;;;;;2.92;1.17;;;;;;;20.31;31.42;100459.97;10247754;28;20436;-62
2021/05/31 20:08:31;;;;;;;2.45;1.80;;;;;;;20.27;32.33;100461.38;10237567;28;20141;-63
2021/05/31 20:13:34;;;;;;;1.70;1.60;;;;;;;20.19;32.71;100464.13;10247161;28;20141;-62
2021/05/31 20:18:36;;;;;;;3.20;2.00;;;;;;;20.13;32.08;100461.13;10252026;28;20153;-62
2021/05/31 20:23:39;;;;;;;2.83;2.10;;;;;;;20.08;32.25;100460.81;10250032;28;20184;-62
2021/05/31 20:28:41;;;;;;;2.92;2.00;;;;;;;20.02;32.70;100464.25;10249699;28;20133;-63
2021/05/31 20:33:43;;;;;;;3.05;1.70;;;;;;;19.98;34.36;100465.63;10236336;28;20133;-62
2021/05/31 20:38:45;;;;;;;3.13;2.25;;;;;;;19.95;34.60;100474.09;10247558;28;20074;-62
2021/05/31 20:43:46;;;;;;;4.38;2.40;;;;;;;19.87;35.06;100466.06;10237833;28;20117;-62
2021/05/31 20:48:48;;;;;;;5.85;2.50;;;;;;;19.72;35.19;100466.78;10243518;28;20126;-63
2021/05/31 20:53:50;;;;;;;3.63;2.40;;;;;;;19.68;35.27;100478.13;10245275;28;20117;-63
2021/05/31 20:58:51;;;;;;;4.03;2.97;;;;;;;19.59;35.80;100480.03;10237935;28;20078;-62
2021/05/31 21:03:53;;;;;;;3.53;2.85;;;;;;;19.50;35.82;100468.44;10249304;28;20349;-63
2021/05/31 21:09:06;;;;;;;3.38;3.05;;;;;;;19.39;35.77;100469.66;10249297;28;20101;-63
2021/05/31 21:14:09;;;;;;;3.75;2.38;;;;;;;19.32;36.21;100467.84;10262250;28;20678;-63
2021/05/31 21:19:10;;;;;;;6.20;3.20;;;;;;;19.25;36.74;100460.44;10241801;28;20054;-62
2021/05/31 21:24:12;;;;;;;3.03;2.45;;;;;;;19.19;36.72;100461.16;10221558;28;20122;-63
2021/05/31 21:29:13;;;;;;;2.72;1.92;;;;;;;19.15;37.17;100469.78;10222036;28;20090;-62
2021/05/31 21:34:15;;;;;;;2.83;2.15;;;;;;;19.06;37.15;100467.09;10216807;28;20145;-63
2021/05/31 21:39:22;;;;;;;4.13;2.40;;;;;;;18.87;37.08;100465.66;10218008;28;20130;-61
2021/05/31 21:44:24;;;;;;;3.42;3.05;;;;;;;18.88;39.11;100477.28;10216324;28;20142;-62
2021/05/31 21:49:25;;;;;;;3.33;3.03;;;;;;;18.87;39.02;100478.28;10223256;28;20054;-62
2021/05/31 21:54:27;;;;;;;4.03;2.83;;;;;;;18.81;38.99;100473.53;10206803;28;20055;-62
2021/05/31 21:59:28;;;;;;;2.08;1.98;;;;;;;18.72;38.20;100476.28;10216483;28;20119;-62
2021/05/31 22:04:30;;;;;;;3.47;2.47;;;;;;;18.67;38.42;100470.53;10210413;28;20123;-60
2021/05/31 22:09:32;;;;;;;3.80;3.50;;;;;;;18.59;39.25;100475.94;10212675;28;20182;-61
2021/05/31 22:14:36;;;;;;;5.55;3.90;;;;;;;18.61;38.92;100468.53;10212924;28;20083;-62
2021/05/31 22:24:51;;;;;;;3.53;3.22;;;;;;;18.35;40.59;100474.94;10259000;28;20177;-62
2021/05/31 22:35:14;;;;;;;3.75;3.38;;;;;;;18.19;40.89;100470.44;10260337;28;20075;-63
2021/05/31 22:40:43;;;;;;;4.45;2.78;;;;;;;18.06;41.10;100459.31;10261491;28;20126;-61
2021/05/31 23:17:25;;;;;;;3.33;2.50;;;;;;;17.59;43.19;100465.25;10253995;28;20553;-61
2021/05/31 23:22:30;;;;;;;4.25;2.53;;;;;;;17.55;43.49;100472.81;10218913;28;20160;-61
2021/05/31 23:27:31;;;;;;;3.00;2.30;;;;;;;17.50;43.72;100469.75;10213616;28;20083;-61
2021/05/31 23:32:33;;;;;;;3.05;1.88;;;;;;;17.41;43.86;100470.72;10211127;28;20366;-62
2021/05/31 23:37:35;;;;;;;2.97;2.10;;;;;;;17.36;44.21;100468.53;10191984;28;21567;-62
2021/05/31 23:42:36;;;;;;;4.20;2.08;;;;;;;17.28;44.51;100463.97;10196916;28;20051;-62
2021/05/31 23:47:38;;;;;;;2.22;1.50;;;;;;;17.15;44.46;100455.50;10206199;28;20452;-61
2021/05/31 23:52:41;;;;;;;3.40;1.60;;;;;;;17.12;44.83;100472.81;10210429;28;20079;-62
2021/05/31 23:57:43;;;;;;;3.95;2.28;;;;;;;16.99;45.35;100466.19;10212741;28;20062;-62
